Aérodrome :
LOGIN :

S'inscrire | Disclaimer

   EN    FR    IT 

 










Légende :    VFR   VFR Marginal   IFR   IFR Intensif   IFR Très Intensif
Visi : 
Plafond : 
>= 8 km
>= 3000ft
5 à 8 km
1000 à 3000 ft
1500m à 5 km
500 à 1000 ft
800 à 1500m
200 à 500 ft
< 800m
< 200 ft
Symboles :   Orages  Brouillard  Fortes neiges  Fortes précipitations  Vent > 20 kt
SIGMETs :   Divers  Orages  Givrage  Turbulence  Onde Orograph.  Cendres Volcan.






- Altitude de l'aérodrome : 1302 ft
- Code IATA : GNB


LFLS - Grenoble / St. Geoirs

DERNIER METAR :
  • 101200Z AUTO 23009KT 9999 FEW056 BKN066 OVC078 13/03 Q1016 TEMPO 22015G25KT

METARs EXPIRÉS :
  • 101130Z AUTO 23007KT 9999 SCT056 BKN066 OVC080 13/02 Q1016 TEMPO 22015G25KT
  • 101100Z AUTO 24008KT 9999 FEW054 OVC070 12/02 Q1017 NOSIG
  • 101030Z AUTO 25006KT 220V280 9999 SCT056 BKN072 OVC084 12/01 Q1017 NOSIG
  • 101000Z AUTO 24009KT 9999 SCT058 BKN078 OVC088 12/01 Q1017 NOSIG
  • 100930Z AUTO 23010KT 9999 FEW060 BKN078 OVC090 12/M00 Q1017 NOSIG
  • 100900Z AUTO 22007KT 160V260 9999 FEW056 BKN078 OVC092 12/M00 Q1017 NOSIG

TAF TAF LFLS
Valide du 10 à 09h jusqu'au 11 à 09h UTC


100800Z 1009/1109 22012KT CAVOK
PROB30
TEMPO 1013/1017 22015G25KT
TEMPO 1017/1022 BKN030 BKN080
FM102200 VRB05KT CAVOK
PROB40
TEMPO 1022/1107 BKN018 BKN080
BECMG 1107/1109 22012KT
ATIS : +33 4 76 65 55 89



MET'MAP, la Météo Aéronautique d'un coup d'oeil ! - Copyright ORBIFLY Décembre 2007 - Disclaimer

ORBIFLY MET'MAP TEAM :

Programmation & Développement : Alexandra Zaïnal
Sur une idée originale de : Baudouin d'Aumeries
Assistance à la programmation : Marc-Olivier Méhu
Soutien technique & logistique : Manuel Goepfert

Contact : metmap@orbifly.com




SOURCES & CREDITS :

   NOAA